Time;durP1;ratioP1;P1;durP2;ratioP2;P2;SDS_P1;SDS_P2;PMS_P1;PMS_P2;Temp;Humidity;BMP_temperature;BMP_pressure;BME280_temperature;BME280_humidity;BME280_pressure;Samples;Min_cycle;Max_cycle;Signal;HPM_P1;HPM_P2
2022/11/05 00:10:57;;;;;;;4.13;2.80;;;7.70;81.30;;;5.89;100.00;95651.53;4916399;28;20040;-70
2022/11/05 00:19:08;;;;;;;4.03;2.78;;;7.80;81.10;;;5.93;100.00;95653.66;4881091;28;20477;-72
2022/11/05 00:27:07;;;;;;;3.88;2.10;;;7.70;80.70;;;5.92;100.00;95657.25;4879114;28;20238;-71
2022/11/05 00:29:33;;;;;;;4.50;2.20;;;7.60;80.70;;;5.93;100.00;95658.06;4858585;28;20356;-71
2022/11/05 00:32:00;;;;;;;4.85;2.40;;;7.70;80.60;;;5.92;100.00;95662.47;4876227;28;20347;-72
2022/11/05 00:34:26;;;;;;;3.42;2.38;;;7.70;80.80;;;5.95;100.00;95666.53;4865385;28;20359;-72
2022/11/05 00:36:52;;;;;;;3.30;2.10;;;7.80;81.30;;;5.95;100.00;95676.97;4864362;28;20765;-71
2022/11/05 00:39:18;;;;;;;4.32;2.55;;;7.80;80.80;;;5.96;100.00;95678.59;4865229;28;20375;-71
2022/11/05 00:44:58;;;;;;;5.63;2.80;;;7.80;80.70;;;5.95;100.00;95677.78;4865142;28;20496;-71
2022/11/05 00:49:59;;;;;;;4.18;2.63;;;7.80;81.20;;;5.95;100.00;95676.97;4920777;28;20406;-71
2022/11/05 00:55:10;;;;;;;7.32;3.47;;;7.70;81.60;;;5.98;100.00;95692.28;4919555;28;20303;-72
2022/11/05 00:57:36;;;;;;;5.68;3.17;;;7.80;81.50;;;5.98;100.00;95692.28;4915226;28;20387;-71
2022/11/05 01:00:02;;;;;;;6.72;3.33;;;7.80;81.60;;;5.99;100.00;95697.34;4858983;28;20440;-71
2022/11/05 01:02:28;;;;;;;6.93;3.70;;;7.80;81.80;;;6.00;100.00;95690.31;4852554;28;20470;-71
2022/11/05 01:04:55;;;;;;;6.20;3.45;;;7.90;81.90;;;6.01;100.00;95687.53;4881344;28;20185;-71
2022/11/05 01:07:21;;;;;;;6.35;3.65;;;7.90;81.80;;;6.01;100.00;95687.53;4872490;28;20285;-71
2022/11/05 01:09:47;;;;;;;7.32;4.05;;;7.90;81.80;;;6.03;100.00;95685.56;4853338;28;20404;-71
2022/11/05 01:12:13;;;;;;;5.35;3.58;;;8.00;81.70;;;6.04;100.00;95686.38;4856264;28;20656;-71
2022/11/05 01:14:39;;;;;;;6.95;4.43;;;7.90;81.70;;;6.03;100.00;95688.19;4852590;28;20373;-71
2022/11/05 01:17:05;;;;;;;6.32;3.80;;;7.80;81.70;;;6.03;100.00;95696.00;4848431;28;20404;-71
2022/11/05 01:19:31;;;;;;;7.20;4.57;;;7.90;82.00;;;6.02;100.00;95694.38;4882538;28;20513;-72
2022/11/05 01:21:57;;;;;;;5.70;3.97;;;7.80;82.10;;;6.00;100.00;95693.75;4866010;28;20463;-71
2022/11/05 01:24:23;;;;;;;6.90;4.10;;;7.80;82.30;;;6.01;100.00;95697.97;4859258;28;20386;-71
2022/11/05 01:26:50;;;;;;;6.70;4.20;;;7.80;82.60;;;6.02;100.00;95699.59;4848688;28;20456;-72
2022/11/05 01:29:16;;;;;;;7.03;3.92;;;7.90;82.50;;;6.03;100.00;95700.41;4865348;28;20344;-73
2022/11/05 01:31:42;;;;;;;8.15;4.35;;;7.90;82.40;;;6.01;100.00;95703.19;4872489;28;20061;-72
2022/11/05 01:34:08;;;;;;;7.57;4.43;;;7.80;82.30;;;5.98;100.00;95706.16;4879789;28;20212;-70
2022/11/05 01:36:34;;;;;;;9.35;5.15;;;7.80;82.60;;;5.98;100.00;95710.56;4855607;28;20319;-70
2022/11/05 01:39:00;;;;;;;6.28;4.22;;;7.80;82.60;;;5.97;100.00;95714.97;4853697;28;20383;-70
2022/11/05 01:41:26;;;;;;;7.18;4.70;;;7.80;82.60;;;5.96;100.00;95712.53;4851601;28;20360;-72
2022/11/05 01:43:55;;;;;;;7.38;5.20;;;7.80;82.70;;;5.96;100.00;95718.56;4854035;28;20699;-71
2022/11/05 01:46:38;;;;;;;6.55;4.72;;;7.90;82.70;;;5.96;100.00;95713.34;4864381;28;20498;-71
2022/11/05 01:49:31;;;;;;;6.88;4.70;;;7.90;82.90;;;5.95;100.00;95705.69;4905111;28;20371;-71
2022/11/05 01:51:57;;;;;;;9.43;4.97;;;7.80;83.20;;;5.95;100.00;95714.31;4859392;28;20481;-71
2022/11/05 01:54:26;;;;;;;7.43;5.05;;;7.80;83.20;;;5.95;100.00;95714.31;4875722;28;20419;-71
2022/11/05 01:57:05;;;;;;;7.90;5.80;;;7.80;83.10;;;5.94;100.00;95710.09;4860769;28;20460;-72
2022/11/05 01:59:40;;;;;;;9.20;6.18;;;7.80;83.00;;;5.94;100.00;95710.09;4851142;28;20425;-71
2022/11/05 02:02:06;;;;;;;8.75;5.80;;;7.80;83.10;;;5.93;100.00;95698.03;4855363;28;20326;-70
2022/11/05 02:04:42;;;;;;;9.13;6.03;;;7.70;83.10;;;5.94;100.00;95697.03;4872582;28;20384;-70
2022/11/05 02:07:08;;;;;;;9.45;5.18;;;7.80;83.20;;;5.94;100.00;95702.25;4854680;28;20540;-72
2022/11/05 02:09:48;;;;;;;6.63;4.45;;;7.80;83.40;;;5.94;100.00;95707.47;4864706;28;20499;-73
2022/11/05 02:12:13;;;;;;;5.53;4.13;;;7.80;83.30;;;5.93;100.00;95703.25;4859627;28;20400;-71
2022/11/05 02:14:40;;;;;;;7.03;4.43;;;7.80;83.30;;;5.94;100.00;95702.25;4906502;28;20322;-71
2022/11/05 02:17:17;;;;;;;8.05;4.35;;;7.80;83.30;;;5.96;100.00;95700.28;4854023;28;20219;-71
2022/11/05 02:20:10;;;;;;;6.03;4.15;;;7.80;83.30;;;5.94;100.00;95704.06;4890193;28;20329;-72
2022/11/05 02:23:22;;;;;;;6.85;4.88;;;7.80;83.40;;;5.94;100.00;95709.28;4893669;28;20308;-72
2022/11/05 02:26:38;;;;;;;7.72;4.95;;;7.80;83.50;;;5.92;100.00;95719.91;4921394;28;20472;-70
2022/11/05 02:30:00;;;;;;;9.48;4.90;;;7.80;83.60;;;5.92;100.00;95725.13;4877825;28;20224;-71
2022/11/05 02:32:44;;;;;;;8.13;5.03;;;7.80;83.80;;;5.93;100.00;95728.53;4889678;28;20385;-71
2022/11/05 02:36:05;;;;;;;7.50;4.65;;;7.80;84.00;;;5.96;100.00;95731.63;4900659;28;20787;-71
2022/11/05 02:39:04;;;;;;;6.57;4.07;;;7.80;84.00;;;5.98;100.00;95734.88;4896596;28;20703;-71
2022/11/05 02:42:16;;;;;;;5.78;4.55;;;7.90;83.90;;;6.00;100.00;95719.84;4860140;28;20422;-71
2022/11/05 02:44:48;;;;;;;7.03;4.47;;;8.00;84.10;;;6.01;100.00;95734.53;4850398;28;20465;-70
2022/11/05 02:48:21;;;;;;;10.60;4.97;;;8.00;83.80;;;6.04;100.00;95731.56;4899366;28;20459;-71
2022/11/05 02:51:08;;;;;;;6.30;4.20;;;8.00;83.90;;;6.04;100.00;95718.53;4845619;28;20516;-71
2022/11/05 02:53:57;;;;;;;8.27;5.00;;;8.00;83.60;;;6.08;100.00;95725.03;4814382;28;20371;-71
2022/11/05 02:56:31;;;;;;;8.98;5.53;;;8.00;83.70;;;6.09;100.00;95716.22;4880210;28;20359;-71
2022/11/05 02:58:57;;;;;;;8.10;5.28;;;8.10;83.60;;;6.11;100.00;95719.50;4874843;28;20344;-71
2022/11/05 03:01:24;;;;;;;7.25;5.10;;;8.10;83.50;;;6.12;100.00;95715.91;4872764;28;20506;-71
2022/11/05 03:04:00;;;;;;;7.03;4.65;;;8.10;83.10;;;6.14;100.00;95720.94;4855604;28;20319;-73
2022/11/05 03:06:50;;;;;;;7.05;4.13;;;8.10;83.00;;;6.16;100.00;95726.00;4859265;28;20709;-72
2022/11/05 03:09:43;;;;;;;8.77;4.35;;;8.10;82.90;;;6.14;100.00;95724.38;4903259;28;21957;-71
2022/11/05 03:12:32;;;;;;;7.95;4.32;;;8.10;83.00;;;6.14;100.00;95740.03;4886988;28;20326;-72
2022/11/05 03:15:31;;;;;;;22.85;16.25;;;8.10;83.50;;;6.16;100.00;95742.47;4884024;28;20419;-72
2022/11/05 03:18:15;;;;;;;8.98;6.68;;;8.10;83.70;;;6.19;100.00;95767.44;4870229;28;20352;-71
2022/11/05 03:20:59;;;;;;;9.57;5.80;;;8.10;83.60;;;6.20;100.00;95769.88;4881036;28;20366;-71
2022/11/05 03:23:46;;;;;;;6.22;4.05;;;8.20;83.60;;;6.23;100.00;95768.72;4843337;28;20513;-72
2022/11/05 03:26:44;;;;;;;6.78;4.47;;;8.20;83.40;;;6.25;100.00;95782.41;4889333;28;20580;-71
2022/11/05 03:29:22;;;;;;;6.35;4.00;;;8.20;83.30;;;6.26;100.00;95784.03;4880954;28;20408;-72
2022/11/05 03:31:49;;;;;;;5.65;4.20;;;8.20;83.30;;;6.27;100.00;95785.66;4858654;28;20387;-72
2022/11/05 03:34:16;;;;;;;6.38;4.20;;;8.20;83.30;;;6.27;100.00;95783.06;4874288;28;20357;-71
2022/11/05 03:36:46;;;;;;;5.20;4.07;;;8.20;83.20;;;6.29;100.00;95794.16;4870402;28;20293;-71
2022/11/05 03:39:19;;;;;;;7.03;4.03;;;8.20;83.40;;;6.30;100.00;95782.72;4852988;28;20581;-72
2022/11/05 03:41:48;;;;;;;6.10;4.10;;;8.20;83.10;;;6.31;100.00;95793.00;4874104;28;20357;-71
2022/11/05 03:44:14;;;;;;;5.45;4.13;;;8.30;83.00;;;6.31;100.00;95811.28;4857751;28;20671;-71
2022/11/05 03:46:44;;;;;;;6.25;4.30;;;8.20;83.10;;;6.33;100.00;95811.91;4858637;28;20681;-71
2022/11/05 03:49:13;;;;;;;6.82;3.83;;;8.20;83.10;;;6.33;100.00;95816.31;4872380;28;20434;-72
2022/11/05 03:52:06;;;;;;;6.18;4.30;;;8.20;83.10;;;6.33;100.00;95821.53;4856062;28;20435;-70
2022/11/05 03:54:33;;;;;;;5.47;4.18;;;8.10;83.20;;;6.31;100.00;95829.56;4861107;28;20307;-71
2022/11/05 03:57:19;;;;;;;6.43;4.32;;;8.10;83.50;;;6.31;100.00;95820.91;4869086;28;20503;-72
2022/11/05 03:59:47;;;;;;;9.30;4.35;;;8.20;83.70;;;6.33;100.00;95832.00;4872740;28;20476;-72
2022/11/05 04:02:14;;;;;;;6.72;4.18;;;8.20;83.50;;;6.35;100.00;95827.44;4854049;28;20494;-72
2022/11/05 04:04:40;;;;;;;7.00;4.65;;;8.30;83.70;;;6.35;100.00;95833.47;4858110;28;20316;-72
2022/11/05 04:15:22;;;;;;;9.30;4.85;;;8.30;84.30;;;6.38;100.00;95840.16;4882073;28;20131;-71
2022/11/05 04:17:48;;;;;;;6.45;4.82;;;8.30;84.30;;;6.39;100.00;95837.38;4844461;28;20527;-72
2022/11/05 04:25:49;;;;;;;6.43;4.70;;;8.30;84.20;;;6.39;100.00;95842.59;4879558;28;20348;-70
2022/11/05 04:28:15;;;;;;;6.82;4.82;;;8.30;84.40;;;6.38;100.00;95848.00;4865254;28;20545;-70
2022/11/05 04:30:44;;;;;;;7.72;5.13;;;8.20;84.30;;;6.35;100.00;95840.50;4850057;28;20690;-69
2022/11/05 04:33:14;;;;;;;6.78;4.90;;;8.10;84.30;;;6.33;100.00;95839.84;4867130;28;20365;-70
2022/11/05 04:35:40;;;;;;;9.25;5.43;;;8.10;84.70;;;6.32;100.00;95840.81;4872212;28;20570;-70
2022/11/05 04:38:15;;;;;;;8.18;4.97;;;8.10;85.00;;;6.33;100.00;95848.47;4882936;28;20406;-71
2022/11/05 04:40:41;;;;;;;7.80;4.80;;;8.20;84.80;;;6.33;100.00;95851.09;4866371;28;20211;-72
2022/11/05 04:43:07;;;;;;;7.28;5.03;;;8.20;85.00;;;6.34;100.00;95854.56;4874918;28;20344;-72
2022/11/05 04:45:34;;;;;;;5.28;4.57;;;8.10;84.80;;;6.33;100.00;95852.88;4848262;28;20410;-72
2022/11/05 04:48:01;;;;;;;7.65;5.20;;;8.10;84.80;;;6.31;100.00;95854.84;4864663;28;20395;-71
2022/11/05 04:50:27;;;;;;;7.25;4.78;;;8.10;84.70;;;6.30;100.00;95855.84;4930087;28;20557;-71
2022/11/05 04:52:53;;;;;;;7.40;4.68;;;8.10;85.20;;;6.30;100.00;95848.00;4928328;28;20900;-72
2022/11/05 04:55:19;;;;;;;6.88;5.30;;;8.10;85.10;;;6.31;100.00;95854.84;4855356;28;20862;-71
2022/11/05 04:57:52;;;;;;;8.50;5.38;;;8.10;85.10;;;6.33;100.00;95852.88;4856694;28;20368;-72
2022/11/05 05:00:19;;;;;;;7.30;5.22;;;8.20;85.00;;;6.32;100.00;95856.50;4857065;28;20367;-72
2022/11/05 05:02:46;;;;;;;8.63;6.00;;;8.10;84.70;;;6.31;100.00;95852.25;4856613;28;20348;-70
2022/11/05 05:05:12;;;;;;;7.00;5.47;;;8.10;85.00;;;6.31;100.00;95854.84;4854883;28;20582;-70
2022/11/05 05:07:39;;;;;;;7.45;5.38;;;8.10;85.10;;;6.30;100.00;95859.28;4852019;28;20401;-71
2022/11/05 05:10:06;;;;;;;7.82;5.80;;;8.10;85.10;;;6.29;100.00;95862.88;4836905;28;20337;-72
2022/11/05 05:12:33;;;;;;;7.53;5.38;;;8.10;85.30;;;6.30;100.00;95868.91;4836768;28;20368;-72
2022/11/05 05:14:59;;;;;;;8.07;6.18;;;8.10;85.30;;;6.30;100.00;95876.75;4852321;28;20577;-73
2022/11/05 05:17:25;;;;;;;10.38;6.13;;;8.10;85.40;;;6.28;100.00;95871.69;4855966;28;20351;-73
2022/11/05 05:22:36;;;;;;;8.10;6.05;;;8.10;85.60;;;6.26;100.00;95871.03;4879145;28;20544;-73
2022/11/05 05:25:02;;;;;;;8.35;5.78;;;8.10;85.80;;;6.27;100.00;95877.09;4853120;28;20453;-71
2022/11/05 05:27:28;;;;;;;8.57;6.45;;;8.10;85.80;;;6.27;100.00;95877.91;4840521;28;20500;-72
2022/11/05 05:29:58;;;;;;;9.57;6.22;;;8.10;85.90;;;6.28;100.00;95884.75;4844694;28;20442;-69
2022/11/05 05:32:24;;;;;;;11.95;6.47;;;8.20;85.90;;;6.29;100.00;95883.75;4842784;28;20434;-71
2022/11/05 05:34:51;;;;;;;9.57;7.00;;;8.20;85.70;;;6.29;100.00;95877.72;4841815;28;20359;-71
2022/11/05 05:37:17;;;;;;;8.65;6.43;;;8.10;85.70;;;6.28;100.00;95886.53;4855739;28;20431;-72
2022/11/05 05:39:44;;;;;;;8.32;5.70;;;8.10;85.80;;;6.24;100.00;95882.63;4874957;28;20451;-71
2022/11/05 05:42:11;;;;;;;9.35;6.38;;;7.90;86.20;;;6.22;100.00;95889.84;4874930;28;20577;-71
2022/11/05 05:44:37;;;;;;;10.73;6.70;;;7.90;86.50;;;6.22;100.00;95893.25;4874967;28;20352;-72
2022/11/05 05:47:04;;;;;;;11.55;6.72;;;8.00;86.60;;;6.23;100.00;95894.06;4858543;28;20623;-71
2022/11/05 05:49:30;;;;;;;10.68;6.45;;;8.00;86.40;;;6.21;100.00;95896.03;4915373;28;20498;-71
2022/11/05 05:51:56;;;;;;;9.88;6.55;;;8.00;86.70;;;6.22;100.00;95901.09;4860720;28;20583;-71
2022/11/05 05:54:22;;;;;;;10.02;6.97;;;8.10;86.70;;;6.24;100.00;95900.94;4858354;28;20432;-71
2022/11/05 05:56:48;;;;;;;11.40;6.15;;;8.10;86.60;;;6.25;100.00;95897.31;4856506;28;20315;-71
2022/11/05 05:59:14;;;;;;;9.48;6.85;;;8.10;86.60;;;6.26;100.00;95904.19;4854950;28;20743;-71
2022/11/05 06:01:40;;;;;;;10.48;7.35;;;8.10;86.60;;;6.28;100.00;95912.66;4858694;28;20345;-71
2022/11/05 06:04:08;;;;;;;8.75;6.38;;;8.10;86.50;;;6.27;100.00;95916.25;4858960;28;20357;-71
2022/11/05 06:06:34;;;;;;;11.60;6.75;;;8.10;86.70;;;6.30;100.00;95910.69;4857799;28;20352;-71
2022/11/05 06:09:00;;;;;;;8.93;6.82;;;8.20;86.40;;;6.33;100.00;95899.91;4870638;28;20495;-72
2022/11/05 06:11:27;;;;;;;9.63;6.88;;;8.30;86.30;;;6.34;100.00;95912.03;4865734;28;20696;-71
2022/11/05 06:13:53;;;;;;;9.60;7.45;;;8.20;86.20;;;6.36;100.00;95920.50;4863735;28;20333;-71
2022/11/05 06:16:19;;;;;;;11.05;8.13;;;8.30;86.10;;;6.34;100.00;95915.44;4864723;28;20372;-71
2022/11/05 06:18:46;;;;;;;8.30;6.90;;;8.20;86.50;;;6.35;100.00;95913.66;4833484;28;20448;-71
2022/11/05 06:21:14;;;;;;;9.20;6.68;;;8.20;86.30;;;6.33;100.00;95918.19;4834955;28;20203;-71
2022/11/05 06:23:42;;;;;;;10.43;7.13;;;8.10;86.60;;;6.33;100.00;95926.03;4859871;28;20717;-71
2022/11/05 06:26:13;;;;;;;19.00;13.40;;;8.10;86.70;;;6.33;100.00;95928.66;4848217;28;20450;-70
2022/11/05 06:28:40;;;;;;;15.30;11.48;;;8.10;86.90;;;6.34;100.00;95933.72;4875434;28;20352;-71
2022/11/05 06:31:10;;;;;;;20.13;14.30;;;8.20;86.90;;;6.38;100.00;95940.25;4857697;28;20371;-70
2022/11/05 06:33:36;;;;;;;25.00;18.58;;;8.30;86.70;;;6.42;100.00;95938.94;4856667;28;20452;-71
2022/11/05 06:36:03;;;;;;;15.27;12.10;;;8.40;86.90;;;6.47;100.00;95940.22;4840367;28;20569;-71
2022/11/05 06:38:31;;;;;;;22.42;15.48;;;8.50;86.40;;;6.51;100.00;95944.94;4840418;28;20042;-71
2022/11/05 06:40:58;;;;;;;19.35;14.40;;;8.50;86.40;;;6.56;100.00;95947.03;4855470;28;20456;-71
2022/11/05 06:43:25;;;;;;;10.85;8.75;;;8.60;86.10;;;6.59;100.00;95952.78;4839887;28;20312;-71
2022/11/05 06:45:51;;;;;;;13.18;8.80;;;8.60;86.00;;;6.63;100.00;95958.47;4852331;28;20470;-71
2022/11/05 06:48:17;;;;;;;13.65;8.35;;;8.60;85.90;;;6.66;100.00;95969.41;4852242;28;20046;-71
2022/11/05 06:50:44;;;;;;;11.10;7.20;;;8.70;85.90;;;6.69;100.00;95966.44;4861743;28;20344;-70
2022/11/05 06:53:10;;;;;;;11.32;8.05;;;8.70;85.50;;;6.72;100.00;95973.13;4857315;28;20325;-70
2022/11/05 06:55:36;;;;;;;11.18;8.68;;;8.70;85.40;;;6.75;100.00;95978.84;4858078;28;20288;-71
2022/11/05 06:58:03;;;;;;;12.77;8.52;;;8.80;85.50;;;6.78;100.00;95982.09;4860294;28;20364;-72
2022/11/05 07:00:29;;;;;;;11.02;8.85;;;8.80;85.30;;;6.79;100.00;95983.72;4859498;28;20480;-72
2022/11/05 07:03:02;;;;;;;12.90;9.13;;;8.70;85.40;;;6.80;100.00;95986.22;4855620;28;20201;-71
2022/11/05 07:05:28;;;;;;;14.18;10.90;;;8.70;85.50;;;6.84;100.00;95986.69;4860884;28;20496;-70
2022/11/05 07:07:54;;;;;;;19.88;13.90;;;8.80;85.50;;;6.89;100.00;95989.59;4887978;28;20595;-71
2022/11/05 07:10:21;;;;;;;10.95;8.63;;;9.00;85.40;;;6.93;100.00;95991.69;4878969;28;20568;-71
2022/11/05 07:12:47;;;;;;;11.23;7.43;;;9.00;85.00;;;7.00;100.00;96000.50;4858508;28;20396;-70
2022/11/05 07:15:13;;;;;;;9.02;7.15;;;9.10;84.90;;;7.03;100.00;95992.34;4864171;28;20045;-70
2022/11/05 07:17:39;;;;;;;9.05;6.57;;;9.10;84.60;;;7.10;100.00;95995.06;4876572;28;20223;-71
2022/11/05 07:20:06;;;;;;;9.40;6.70;;;9.30;84.20;;;7.18;100.00;95997.66;4857896;28;20498;-71
2022/11/05 07:22:33;;;;;;;9.18;6.85;;;9.30;84.10;;;7.23;100.00;96002.38;4858138;28;20385;-70
2022/11/05 07:24:59;;;;;;;10.68;7.50;;;9.40;83.90;;;7.28;100.00;96007.91;4857138;28;20329;-71
2022/11/05 07:27:25;;;;;;;9.68;7.10;;;9.40;83.80;;;7.34;100.00;96013.28;4858854;28;20278;-71
2022/11/05 07:29:52;;;;;;;8.52;6.38;;;9.60;83.70;;;7.40;100.00;96014.38;4864139;28;20362;-70
2022/11/05 07:32:18;;;;;;;8.13;6.47;;;9.60;83.40;;;7.44;100.00;96015.66;4858345;28;20375;-70
2022/11/05 07:34:44;;;;;;;7.78;6.22;;;9.50;83.30;;;7.46;100.00;96020.72;4866005;28;20193;-71
2022/11/05 07:37:10;;;;;;;8.27;6.13;;;9.50;83.60;;;7.50;100.00;96022.88;4869491;28;20412;-71
2022/11/05 07:39:37;;;;;;;9.43;6.47;;;9.60;83.50;;;7.55;100.00;96028.38;4863277;28;20519;-70
2022/11/05 07:42:03;;;;;;;8.48;6.13;;;9.70;83.30;;;7.62;100.00;96033.75;4864826;28;20390;-71
2022/11/05 07:44:29;;;;;;;6.90;5.93;;;9.80;83.20;;;7.65;100.00;96033.41;4846276;28;20359;-69
2022/11/05 07:46:55;;;;;;;10.38;6.43;;;9.70;83.00;;;7.70;100.00;96035.53;4887696;28;20386;-70
2022/11/05 07:49:22;;;;;;;6.50;5.78;;;9.80;83.00;;;7.74;100.00;96040.25;4885271;28;20352;-69
2022/11/05 07:51:48;;;;;;;9.02;6.53;;;9.80;82.80;;;7.81;100.00;96038.53;4884637;28;20764;-69
2022/11/05 07:54:14;;;;;;;9.75;6.18;;;10.00;82.70;;;7.89;100.00;96041.09;4894975;28;20336;-70
2022/11/05 07:56:40;;;;;;;7.68;5.72;;;10.10;82.50;;;7.96;100.00;96039.44;4849490;28;20215;-70
2022/11/05 07:59:07;;;;;;;10.25;7.00;;;10.10;82.10;;;8.05;100.00;96034.13;4845289;28;20332;-71
2022/11/05 08:01:33;;;;;;;11.07;7.25;;;10.20;82.70;;;8.13;100.00;96036.69;4836136;28;20387;-70
2022/11/05 08:03:59;;;;;;;14.32;9.23;;;10.40;82.50;;;8.22;100.00;96040.91;4861885;28;20417;-70
2022/11/05 08:06:25;;;;;;;13.05;10.32;;;10.40;82.40;;;8.26;100.00;96047.41;4856686;28;20371;-71
2022/11/05 08:08:51;;;;;;;9.13;6.68;;;10.40;82.00;;;8.31;100.00;96045.06;4860531;28;20181;-71
2022/11/05 08:11:17;;;;;;;8.43;6.40;;;10.40;81.70;;;8.37;100.00;96049.63;4873840;28;20542;-73
2022/11/05 08:13:43;;;;;;;10.25;7.32;;;10.50;81.30;;;8.40;100.00;96044.06;4856863;28;20406;-71
2022/11/05 08:16:14;;;;;;;8.45;6.85;;;10.50;81.70;;;8.46;100.00;96045.97;4858349;28;20629;-71
2022/11/05 08:19:31;;;;;;;10.80;7.82;;;10.50;81.50;;;8.59;100.00;96037.47;4914168;28;20042;-73
2022/11/05 08:21:57;;;;;;;8.10;6.85;;;10.90;81.40;;;8.72;100.00;96042.13;4892779;28;20565;-73
2022/11/05 08:24:23;;;;;;;8.38;5.70;;;11.10;81.40;;;8.85;100.00;96048.41;4888140;28;20057;-73
2022/11/05 08:26:49;;;;;;;6.57;5.10;;;11.10;80.20;;;8.97;100.00;96046.13;4857313;28;20508;-70
2022/11/05 08:29:16;;;;;;;6.53;4.95;;;11.40;79.60;;;9.07;100.00;96048.50;4855546;28;20356;-73
2022/11/05 08:31:45;;;;;;;6.40;4.75;;;11.20;79.50;;;9.11;100.00;96050.59;4858785;28;20311;-65
2022/11/05 08:34:11;;;;;;;8.55;7.10;;;11.10;78.70;;;9.14;100.00;96060.72;4857905;28;20502;-70
2022/11/05 08:36:40;;;;;;;20.65;15.25;;;11.10;79.80;;;9.18;100.00;96055.91;4857462;28;20376;-70
2022/11/05 08:39:06;;;;;;;10.75;8.82;;;11.10;79.80;;;9.17;100.00;96052.47;4870032;28;20436;-68
2022/11/05 08:41:32;;;;;;;11.90;9.95;;;11.10;79.60;;;9.18;100.00;96054.09;4854781;28;20413;-67
2022/11/05 08:43:58;;;;;;;9.35;7.30;;;11.10;80.30;;;9.18;100.00;96059.34;4853701;28;20680;-67
2022/11/05 08:46:24;;;;;;;9.50;7.38;;;11.10;79.70;;;9.21;100.00;96056.38;4852973;28;20528;-67
2022/11/05 08:48:50;;;;;;;7.80;5.85;;;11.10;79.50;;;9.23;100.00;96055.38;4876868;28;20416;-67
2022/11/05 08:51:17;;;;;;;7.60;5.60;;;11.10;79.80;;;9.23;100.00;96060.63;4853673;28;20563;-67
2022/11/05 08:53:43;;;;;;;7.20;6.22;;;11.10;79.30;;;9.19;100.00;96050.47;4855281;28;20464;-67
2022/11/05 08:56:22;;;;;;;7.65;6.75;;;11.00;79.70;;;9.20;100.00;96057.38;4871391;28;20871;-67
2022/11/05 08:58:48;;;;;;;7.30;6.50;;;11.00;79.50;;;9.14;100.00;96057.28;4867514;28;20434;-67
2022/11/05 09:01:14;;;;;;;8.07;6.75;;;10.90;79.90;;;9.09;100.00;96057.81;4855052;28;20207;-67
2022/11/05 09:03:40;;;;;;;7.40;5.70;;;10.80;80.40;;;9.08;100.00;96063.25;4884066;28;20476;-67
2022/11/05 09:06:06;;;;;;;7.82;5.95;;;10.80;80.30;;;9.06;100.00;96065.25;4884188;28;20466;-67
2022/11/05 09:08:33;;;;;;;7.93;6.63;;;10.80;80.60;;;9.05;100.00;96056.56;4905095;28;20417;-67
2022/11/05 09:10:59;;;;;;;14.13;11.45;;;10.90;80.30;;;9.09;100.00;96068.31;4896968;28;20072;-68
2022/11/05 09:13:25;;;;;;;8.00;6.00;;;11.00;80.30;;;9.14;100.00;96067.78;4856071;28;20336;-67
2022/11/05 09:15:52;;;;;;;6.88;5.20;;;11.10;80.20;;;9.17;100.00;96065.59;4864280;28;20599;-67
2022/11/05 09:18:18;;;;;;;5.53;5.00;;;11.10;79.50;;;9.18;100.00;96064.59;4888662;28;20291;-67
2022/11/05 09:20:45;;;;;;;6.03;4.97;;;11.10;79.50;;;9.20;100.00;96064.41;4858581;28;20450;-65
2022/11/05 09:23:12;;;;;;;7.63;5.35;;;11.20;79.60;;;9.26;100.00;96066.31;4853817;28;20809;-66
2022/11/05 09:25:38;;;;;;;5.75;4.97;;;11.30;79.30;;;9.28;100.00;96059.09;4853222;28;20216;-67
2022/11/05 09:28:10;;;;;;;6.90;5.22;;;11.30;79.60;;;9.31;100.00;96069.22;4881138;28;20468;-66
2022/11/05 09:30:47;;;;;;;9.32;5.60;;;11.30;79.80;;;9.34;100.00;96068.06;4871059;28;20453;-67
2022/11/05 09:33:13;;;;;;;6.03;5.43;;;11.30;79.90;;;9.32;100.00;96076.09;4855196;28;20568;-67
2022/11/05 09:35:42;;;;;;;6.93;4.88;;;11.30;80.00;;;9.30;100.00;96067.59;4855394;28;20794;-68
2022/11/05 09:38:08;;;;;;;6.07;4.93;;;11.20;79.40;;;9.28;100.00;96076.63;4854950;28;20426;-68
2022/11/05 09:40:43;;;;;;;5.50;4.55;;;11.20;79.50;;;9.25;100.00;96084.88;4854453;28;20497;-68
2022/11/05 09:43:16;;;;;;;5.20;4.70;;;11.10;80.00;;;9.21;100.00;96084.41;4870729;28;20359;-68
2022/11/05 09:45:42;;;;;;;6.18;4.32;;;11.10;79.80;;;9.20;100.00;96088.84;4855874;28;20506;-68
2022/11/05 09:48:13;;;;;;;5.68;4.50;;;11.10;80.10;;;9.23;100.00;96086.88;4849400;28;20637;-68
2022/11/05 09:50:41;;;;;;;6.82;5.05;;;11.20;79.80;;;9.21;100.00;96093.09;4856435;28;20477;-68
2022/11/05 09:53:13;;;;;;;8.25;7.13;;;11.20;79.70;;;9.26;100.00;96091.75;4881118;28;20407;-68
2022/11/05 09:55:41;;;;;;;26.52;21.02;;;11.20;79.70;;;9.31;100.00;96089.41;4877377;28;20354;-68
2022/11/05 09:58:24;;;;;;;9.30;7.97;;;11.40;79.80;;;9.37;100.00;96093.94;4845066;28;20376;-69
2022/11/05 10:00:51;;;;;;;6.70;6.00;;;11.60;79.60;;;9.41;100.00;96096.00;4867346;28;20212;-69
2022/11/05 10:03:25;;;;;;;8.70;6.70;;;11.60;79.20;;;9.52;100.00;96102.63;4850782;28;20325;-68
2022/11/05 10:05:51;;;;;;;8.85;6.63;;;11.80;78.70;;;9.60;100.00;96096.47;4852827;28;20066;-67
2022/11/05 10:08:22;;;;;;;10.75;9.00;;;11.90;78.50;;;9.69;100.00;96096.16;4867926;28;20422;-70
2022/11/05 10:11:02;;;;;;;7.75;5.80;;;11.90;78.60;;;9.78;100.00;96092.44;4873166;28;20669;-71
2022/11/05 10:13:35;;;;;;;7.65;6.93;;;12.00;77.50;;;9.88;100.00;96102.66;4878932;28;20443;-71
2022/11/05 10:16:20;;;;;;;8.93;7.68;;;12.10;77.50;;;10.02;100.00;96103.63;4888274;28;20418;-69
2022/11/05 10:19:20;;;;;;;6.13;5.15;;;12.40;77.40;;;10.20;100.00;96104.03;4892292;28;20311;-71
2022/11/05 10:21:47;;;;;;;5.90;4.70;;;12.60;76.20;;;10.28;100.00;96103.94;4891078;28;20556;-70
2022/11/05 10:24:19;;;;;;;5.50;4.35;;;12.60;75.30;;;10.37;100.00;96108.06;4877203;28;20359;-70
2022/11/05 10:26:50;;;;;;;4.85;3.97;;;12.60;74.90;;;10.50;100.00;96101.31;4881874;28;20470;-68
2022/11/05 10:29:31;;;;;;;4.85;3.75;;;12.80;74.30;;;10.62;100.00;96100.63;4854560;28;20341;-70
2022/11/05 10:31:58;;;;;;;4.47;3.60;;;12.90;74.90;;;10.69;100.00;96103.31;4861081;28;20443;-70
2022/11/05 10:34:31;;;;;;;6.30;5.35;;;12.90;73.30;;;10.80;100.00;96104.63;4857462;28;20704;-70
2022/11/05 10:36:57;;;;;;;7.05;4.50;;;13.10;73.50;;;10.97;100.00;96112.06;4856860;28;20344;-70
2022/11/05 10:39:23;;;;;;;5.38;4.65;;;13.60;72.40;;;11.22;100.00;96107.16;4871139;28;20832;-71
2022/11/05 10:42:29;;;;;;;3.83;3.28;;;14.40;71.40;;;11.47;100.00;96107.53;4877489;28;20323;-72
2022/11/05 10:45:17;;;;;;;4.22;3.10;;;14.30;70.00;;;11.52;100.00;96118.28;4886914;28;20556;-71
2022/11/05 10:48:04;;;;;;;4.35;2.83;;;13.90;69.50;;;11.49;100.00;96109.97;4858288;28;20307;-70
2022/11/05 10:50:30;;;;;;;3.45;3.10;;;13.60;70.10;;;11.40;100.00;96125.13;4876582;28;20327;-70
2022/11/05 10:53:15;;;;;;;3.83;3.40;;;13.30;71.20;;;11.27;100.00;96119.75;4864531;28;20704;-71
2022/11/05 10:55:46;;;;;;;3.47;3.05;;;13.00;72.30;;;11.13;100.00;96113.59;4861417;28;20344;-73
2022/11/05 10:58:15;;;;;;;5.05;3.05;;;12.90;72.90;;;11.05;100.00;96117.16;4879398;28;20041;-74
2022/11/05 11:00:52;;;;;;;3.33;3.03;;;13.10;73.30;;;11.08;100.00;96118.59;4900419;28;20838;-73
2022/11/05 11:03:48;;;;;;;3.83;3.10;;;13.50;72.40;;;11.29;100.00;96123.00;4891305;28;20438;-73
2022/11/05 11:06:29;;;;;;;4.07;3.17;;;14.50;69.30;;;11.45;100.00;96127.97;4883623;28;20049;-71
2022/11/05 11:09:01;;;;;;;3.63;3.30;;;14.60;67.40;;;11.62;100.00;96121.41;4903111;28;20350;-72
2022/11/05 11:11:40;;;;;;;4.60;3.50;;;14.60;68.10;;;11.79;100.00;96119.28;4889030;28;20310;-72
2022/11/05 11:14:20;;;;;;;4.05;3.60;;;14.60;68.00;;;11.92;100.00;96129.88;4886311;28;20268;-72
2022/11/05 11:16:56;;;;;;;5.15;3.58;;;14.70;68.60;;;11.95;100.00;96113.66;4878061;28;20400;-69
2022/11/05 11:19:33;;;;;;;4.30;3.90;;;14.50;68.40;;;11.91;100.00;96109.78;4858267;28;20407;-66
2022/11/05 11:22:02;;;;;;;5.80;3.72;;;14.20;69.30;;;11.84;100.00;96114.25;4867935;28;20793;-72
2022/11/05 11:24:28;;;;;;;4.13;3.50;;;13.90;69.60;;;11.79;100.00;96121.94;4921763;28;20383;-72